Time;durP1;ratioP1;P1;durP2;ratioP2;P2;SDS_P1;SDS_P2;PMS_P1;PMS_P2;Temp;Humidity;BMP_temperature;BMP_pressure;BME280_temperature;BME280_humidity;BME280_pressure;Samples;Min_cycle;Max_cycle;Signal;HPM_P1;HPM_P2
2023/12/24 09:53:03;;;;;;;13.57;4.32;;;;;;;-142.57;81.32;56543.69;5215081;23;20139;-87
2023/12/24 09:55:29;;;;;;;19.77;3.72;;;;;;;-142.57;76.27;56578.03;4932841;29;20055;-82
2023/12/24 09:57:54;;;;;;;25.75;4.18;;;;;;;-142.57;75.95;56588.13;4945298;29;20074;-81
2023/12/24 10:00:22;;;;;;;17.30;4.13;;;;;;;-142.57;77.01;56590.16;4936674;29;20118;-85
2023/12/24 10:02:48;;;;;;;14.75;4.25;;;;;;;-142.57;77.97;56525.50;4922634;29;20039;-82
2023/12/24 10:05:14;;;;;;;18.02;4.40;;;;;;;-142.57;83.10;56448.69;4919691;29;20122;-83
2023/12/24 10:07:45;;;;;;;18.40;4.47;;;;;;;-142.57;82.25;56489.13;4917074;29;20477;-81
2023/12/24 10:10:13;;;;;;;16.50;4.17;;;;;;;-142.57;85.04;56493.16;4877250;28;20059;-83
2023/12/24 10:12:40;;;;;;;22.25;4.43;;;;;;;-142.57;82.09;56531.56;4915147;29;20043;-84
2023/12/24 10:15:09;;;;;;;25.70;4.57;;;;;;;-142.57;80.71;56541.66;4932736;29;20202;-84
2023/12/24 10:17:36;;;;;;;18.90;4.38;;;;;;;-142.57;78.72;56614.41;4943812;29;20043;-85
2023/12/24 10:20:06;;;;;;;19.80;4.32;;;;;;;-142.57;76.86;56677.06;4939237;29;20181;-81
2023/12/24 10:22:33;;;;;;;17.95;4.00;;;;;;;-142.57;76.67;56642.72;4920064;29;20062;-83
2023/12/24 10:25:01;;;;;;;19.13;4.35;;;;;;;-142.57;76.34;56695.25;4932379;29;20043;-85
2023/12/24 10:27:30;;;;;;;18.98;4.97;;;;;;;-142.57;75.40;56671.00;4916517;29;20046;-84
2023/12/24 10:30:10;;;;;;;15.70;4.65;;;;;;;-142.57;75.41;56719.50;4935706;29;20048;-86
2023/12/24 10:32:35;;;;;;;16.73;4.28;;;;;;;-142.57;78.34;56634.63;4942145;29;20039;-87
2023/12/24 10:35:02;;;;;;;20.85;4.40;;;;;;;-142.57;80.41;56624.53;4945896;29;20110;-85
2023/12/24 10:37:29;;;;;;;19.25;4.72;;;;;;;-142.57;76.49;56717.47;4927020;29;20075;-84
2023/12/24 10:40:08;;;;;;;17.40;5.55;;;;;;;-142.57;74.54;56739.72;4943377;29;20036;-85
2023/12/24 10:42:36;;;;;;;21.13;4.78;;;;;;;-142.57;76.75;56675.03;4946930;29;20458;-87
2023/12/24 10:45:05;;;;;;;18.92;4.53;;;;;;;-142.57;78.81;56642.72;4941562;29;20058;-86
2023/12/24 10:47:31;;;;;;;19.60;4.30;;;;;;;-142.57;78.89;56723.53;4940528;29;20042;-85
2023/12/24 10:49:56;;;;;;;20.45;4.22;;;;;;;-142.57;77.76;56723.53;4940209;29;20040;-84
2023/12/24 10:52:22;;;;;;;14.02;3.78;;;;;;;-142.57;74.92;56675.03;4939644;29;20036;-85
2023/12/24 10:54:48;;;;;;;19.55;4.50;;;;;;;-142.57;74.48;56683.13;4940523;29;20103;-86
2023/12/24 10:57:31;;;;;;;18.08;4.05;;;;;;;-142.57;72.19;56776.09;4941451;29;20088;-84
2023/12/24 11:00:20;;;;;;;15.63;5.00;;;;;;;-142.57;71.11;56836.72;4942328;29;20032;-87
2023/12/24 11:02:52;;;;;;;15.68;4.30;;;;;;;-142.57;70.03;56856.94;4950065;29;20031;-88
2023/12/24 11:06:00;;;;;;;21.80;4.83;;;;;;;-142.57;71.21;56881.19;4950655;28;20040;-88
2023/12/24 11:08:45;;;;;;;18.33;4.38;;;;;;;-142.57;70.63;56909.50;4874802;29;20051;-87
2023/12/24 11:11:11;;;;;;;18.73;4.82;;;;;;;-142.57;70.13;56974.16;4847577;29;20065;-90
2023/12/24 11:13:43;;;;;;;18.40;4.88;;;;;;;-142.57;70.51;56943.84;4833091;29;20050;-86
2023/12/24 11:16:12;;;;;;;22.73;5.10;;;;;;;-142.57;70.48;56992.34;4870748;29;20069;-85
2023/12/24 11:18:50;;;;;;;16.67;5.43;;;;;;;-142.57;70.26;56990.34;4856572;29;20042;-86
2023/12/24 11:21:19;;;;;;;20.02;5.82;;;;;;;-142.57;72.20;56909.50;4854447;29;20033;-90
2023/12/24 11:24:14;;;;;;;40.45;10.65;;;;;;;-142.57;71.38;56941.81;4867340;29;20397;-89
2023/12/24 11:26:51;;;;;;;44.08;13.70;;;;;;;-142.57;72.63;56941.81;4835223;29;20117;-88
2023/12/24 11:29:58;;;;;;;50.10;14.57;;;;;;;-142.57;72.03;56949.91;4819989;29;20054;-88
2023/12/24 11:32:26;;;;;;;35.67;6.68;;;;;;;-142.57;71.05;56970.13;4782794;29;20498;-86
2023/12/24 11:34:53;;;;;;;22.67;5.65;;;;;;;-142.57;70.45;57010.53;4800208;29;20047;-86
2023/12/24 11:37:30;;;;;;;11.95;4.13;;;;;;;-142.57;71.19;57004.47;4801679;29;20039;-84
2023/12/24 11:40:02;;;;;;;14.20;4.25;;;;;;;-142.57;72.02;56984.28;4809516;29;20051;-87
2023/12/24 11:42:46;;;;;;;18.67;4.60;;;;;;;-142.57;72.17;57002.47;4811645;29;20149;-85
2023/12/24 11:45:21;;;;;;;20.83;4.45;;;;;;;-142.57;71.94;57008.53;4807407;29;20118;-87
2023/12/24 11:47:47;;;;;;;15.13;4.03;;;;;;;-142.57;70.96;57083.31;4840610;29;20513;-88
2023/12/24 11:50:23;;;;;;;;;;;;;;;;;;;;;
2023/12/24 11:52:50;;;;;;;15.38;5.05;;;;;;;-142.57;70.85;57079.28;4851059;29;20054;-88
2023/12/24 11:55:25;;;;;;;16.17;5.07;;;;;;;-142.57;72.09;57030.75;4868987;29;20053;-85
2023/12/24 11:57:51;;;;;;;14.07;4.13;;;;;;;-142.57;72.91;57014.59;4871588;29;20050;-87
2023/12/24 12:00:23;;;;;;;24.20;5.63;;;;;;;-142.57;72.36;57063.09;4872560;29;20049;-88
2023/12/24 12:02:55;;;;;;;19.77;4.53;;;;;;;-142.57;72.29;57075.22;4872001;29;20046;-90
2023/12/24 12:05:24;;;;;;;18.10;5.28;;;;;;;-142.57;72.85;57063.09;4881820;29;20053;-87
2023/12/24 12:07:50;;;;;;;18.95;4.95;;;;;;;-142.57;73.06;57073.19;4946814;29;20044;-86
2023/12/24 12:10:17;;;;;;;26.75;7.15;;;;;;;-142.57;71.42;57077.25;4932122;29;20068;-85
2023/12/24 12:12:46;;;;;;;20.73;5.50;;;;;;;-142.57;69.56;57236.94;4948760;29;20048;-90
2023/12/24 12:15:15;;;;;;;18.00;4.70;;;;;;;-142.57;68.99;57277.34;4947095;29;20051;-84
2023/12/24 12:17:40;;;;;;;18.33;4.78;;;;;;;-142.57;68.56;57192.47;4942483;29;20046;-83
2023/12/24 12:20:06;;;;;;;21.00;5.55;;;;;;;-142.57;70.20;57182.34;4943865;29;20028;-83
2023/12/24 12:22:32;;;;;;;18.42;4.97;;;;;;;-142.57;69.83;57192.47;4951618;29;20042;-86
2023/12/24 12:24:57;;;;;;;20.65;5.78;;;;;;;-142.57;69.11;57230.88;4941353;29;20406;-84
2023/12/24 12:27:26;;;;;;;19.20;4.60;;;;;;;-142.57;71.67;57168.19;4959387;28;20509;-82
2023/12/24 12:29:51;;;;;;;19.63;4.68;;;;;;;-142.57;71.02;57249.06;4959226;29;20043;-86
2023/12/24 12:32:17;;;;;;;16.48;4.20;;;;;;;-142.57;70.92;57174.25;4941287;29;20038;-83
2023/12/24 12:34:43;;;;;;;16.65;4.57;;;;;;;-142.57;71.67;57172.25;4958554;28;20526;-84
2023/12/24 12:37:09;;;;;;;13.90;4.57;;;;;;;-142.57;72.28;57127.78;4958608;29;20043;-86
2023/12/24 12:39:35;;;;;;;18.42;4.82;;;;;;;-142.57;73.14;57119.69;4958736;28;20481;-85
2023/12/24 12:42:01;;;;;;;16.00;5.00;;;;;;;-142.57;71.83;57180.34;4940603;29;20039;-85
2023/12/24 12:44:27;;;;;;;17.17;4.53;;;;;;;-142.57;71.57;57204.59;4958105;28;20102;-86
2023/12/24 12:46:53;;;;;;;19.85;5.35;;;;;;;-142.57;71.34;57168.19;4955920;29;20398;-85
2023/12/24 12:49:58;;;;;;;;;;;;;;;;;;;;;
2023/12/24 12:52:50;;;;;;;16.00;4.88;;;;;;;-142.57;72.15;57190.44;4897618;29;20071;-84
2023/12/24 12:55:18;;;;;;;23.13;5.20;;;;;;;-142.57;71.74;57232.88;4897921;29;20065;-85
2023/12/24 12:57:44;;;;;;;13.38;4.68;;;;;;;-142.57;71.63;57261.19;4882919;29;20067;-87
2023/12/24 13:00:13;;;;;;;13.40;5.18;;;;;;;-142.57;71.09;57257.13;4898907;29;20116;-85
2023/12/24 13:02:53;;;;;;;19.80;5.60;;;;;;;-142.57;71.73;57238.94;4902604;29;20048;-88
2023/12/24 13:05:28;;;;;;;18.80;4.93;;;;;;;-142.57;73.55;57184.38;4905123;29;20141;-86
2023/12/24 13:08:14;;;;;;;21.52;5.10;;;;;;;-142.57;75.33;57109.59;4875942;29;20036;-85
2023/12/24 13:10:44;;;;;;;23.13;5.60;;;;;;;-142.57;76.63;57059.06;4907107;29;20045;-86
2023/12/24 13:13:28;;;;;;;19.55;5.22;;;;;;;-142.57;76.51;57081.28;4891566;29;20064;-87
2023/12/24 13:16:07;;;;;;;29.02;7.57;;;;;;;-142.57;78.49;57042.88;4892922;29;20049;-85
2023/12/24 13:18:33;;;;;;;24.10;5.70;;;;;;;-142.57;77.79;57107.56;4905414;29;20086;-85
2023/12/24 13:21:14;;;;;;;20.00;5.28;;;;;;;-142.57;75.34;57208.63;4892071;29;20041;-84
2023/12/24 13:23:50;;;;;;;16.95;4.65;;;;;;;-142.57;74.39;57208.63;4895161;29;20194;-87
2023/12/24 13:26:16;;;;;;;17.23;4.57;;;;;;;-142.57;73.68;57228.84;4884649;29;20040;-88
2023/12/24 13:28:50;;;;;;;17.75;4.78;;;;;;;-142.57;73.94;57192.47;4868812;29;20055;-86
2023/12/24 13:31:15;;;;;;;17.73;4.85;;;;;;;-142.57;74.61;57166.19;4961309;29;20047;-86
2023/12/24 13:33:41;;;;;;;21.25;5.43;;;;;;;-142.57;75.17;57143.94;4956649;28;20391;-84
2023/12/24 13:36:08;;;;;;;23.25;5.60;;;;;;;-142.57;74.77;57269.28;4957766;28;20031;-84
2023/12/24 13:38:36;;;;;;;20.90;5.03;;;;;;;-142.57;75.41;57243.00;4960172;28;20379;-87
2023/12/24 13:41:02;;;;;;;17.05;4.95;;;;;;;-142.57;75.97;57218.72;4962041;28;20457;-87
2023/12/24 13:43:27;;;;;;;19.35;5.00;;;;;;;-142.57;78.32;57194.47;4942378;29;20039;-86
2023/12/24 13:45:53;;;;;;;18.60;4.55;;;;;;;-142.57;78.20;57228.84;4943372;29;20512;-85
2023/12/24 13:48:18;;;;;;;20.90;5.20;;;;;;;-142.57;77.89;57236.94;4958824;28;20573;-86
2023/12/24 13:50:44;;;;;;;27.85;5.70;;;;;;;-142.57;75.67;57249.06;4957731;28;20054;-85
2023/12/24 13:53:10;;;;;;;18.77;4.65;;;;;;;-142.57;75.04;57249.06;4962095;29;20043;-84
2023/12/24 13:55:36;;;;;;;20.77;5.93;;;;;;;-142.57;74.88;57255.13;4961125;28;20074;-88
2023/12/24 13:58:02;;;;;;;17.98;4.82;;;;;;;-142.57;72.63;57342.03;4959814;29;20023;-87
2023/12/24 14:00:35;;;;;;;22.75;4.32;;;;;;;-142.57;73.22;57271.28;4962391;29;20116;-85
2023/12/24 14:03:01;;;;;;;21.40;4.50;;;;;;;-142.57;71.34;57315.75;4960882;29;20130;-86
2023/12/24 14:05:32;;;;;;;12.07;3.97;;;;;;;-142.57;71.06;57331.94;4964737;28;20086;-86
2023/12/24 14:08:04;;;;;;;17.42;4.40;;;;;;;-142.57;71.12;57364.28;4969766;28;20474;-86
2023/12/24 14:10:29;;;;;;;18.38;4.82;;;;;;;-142.57;71.07;57289.47;4959181;29;20043;-85
2023/12/24 14:12:55;;;;;;;21.25;4.25;;;;;;;-142.57;72.43;57236.94;4960097;28;20537;-85
2023/12/24 14:15:21;;;;;;;15.30;4.68;;;;;;;-142.57;70.91;57297.56;4962413;28;20041;-86
2023/12/24 14:17:46;;;;;;;17.80;4.10;;;;;;;-142.57;71.92;57245.00;4963516;28;20130;-86
2023/12/24 14:20:14;;;;;;;19.38;4.85;;;;;;;-142.57;71.63;57333.94;4960991;29;20055;-87
2023/12/24 14:22:46;;;;;;;15.88;4.15;;;;;;;-142.57;69.84;57378.41;4965270;29;20059;-85
2023/12/24 14:25:14;;;;;;;21.57;4.67;;;;;;;-142.57;70.03;57364.28;4966046;28;20054;-85
2023/12/24 14:27:42;;;;;;;18.52;5.10;;;;;;;-142.57;71.93;57253.09;4963972;28;20058;-86
2023/12/24 14:30:09;;;;;;;25.25;4.95;;;;;;;-142.57;73.40;57200.53;4967023;28;20036;-86
2023/12/24 14:32:37;;;;;;;22.48;5.80;;;;;;;-142.57;71.46;57325.88;4962960;28;20065;-87
2023/12/24 14:35:04;;;;;;;25.42;5.05;;;;;;;-142.57;72.70;57273.31;4964572;28;20035;-85
2023/12/24 14:37:32;;;;;;;21.73;5.40;;;;;;;-142.57;72.83;57281.41;4963453;28;20035;-83
2023/12/24 14:40:01;;;;;;;22.95;5.38;;;;;;;-142.57;72.17;57368.31;4963168;28;20557;-87
2023/12/24 14:42:29;;;;;;;22.85;5.45;;;;;;;-142.57;75.05;57188.41;4965286;29;20049;-83
2023/12/24 14:44:57;;;;;;;20.08;5.57;;;;;;;-142.57;75.36;57188.41;4962388;28;20163;-85
2023/12/24 14:47:24;;;;;;;22.10;4.38;;;;;;;-142.57;75.13;57180.34;4963537;28;20034;-86
2023/12/24 14:49:55;;;;;;;23.65;5.07;;;;;;;-142.57;74.29;57216.72;4963923;28;20043;-86
2023/12/24 14:52:20;;;;;;;21.15;5.15;;;;;;;-142.57;74.00;57188.41;4960979;28;20036;-85
2023/12/24 14:54:46;;;;;;;15.77;4.90;;;;;;;-142.57;73.51;57208.63;4961298;29;20039;-87
2023/12/24 14:57:11;;;;;;;24.00;6.68;;;;;;;-142.57;73.16;57214.69;4938742;29;20046;-87
2023/12/24 14:59:37;;;;;;;25.63;5.63;;;;;;;-142.57;72.71;57275.34;4906005;29;20106;-85
2023/12/24 15:02:02;;;;;;;23.13;6.28;;;;;;;-142.57;72.12;57228.84;4907119;29;20083;-86
2023/12/24 15:04:28;;;;;;;21.38;6.55;;;;;;;-142.57;72.19;57269.28;4917071;29;20067;-85
2023/12/24 15:06:53;;;;;;;23.80;6.35;;;;;;;-142.57;71.63;57269.28;4887799;29;20024;-84
2023/12/24 15:09:19;;;;;;;13.88;5.10;;;;;;;-142.57;71.01;57335.97;4896214;29;20027;-89
2023/12/24 15:11:44;;;;;;;19.73;6.85;;;;;;;-142.57;70.43;57366.28;4942999;29;20028;-88
2023/12/24 15:14:10;;;;;;;24.60;6.35;;;;;;;-142.57;70.41;57350.13;4908776;29;20139;-88
2023/12/24 15:16:36;;;;;;;18.65;5.65;;;;;;;-142.57;71.67;57293.53;4924973;29;20483;-87
2023/12/24 15:19:01;;;;;;;25.55;6.68;;;;;;;-142.57;72.64;57236.94;4889923;29;20818;-86
2023/12/24 15:21:27;;;;;;;22.15;4.43;;;;;;;-142.57;72.35;57273.31;4866155;29;20087;-86
2023/12/24 15:23:55;;;;;;;30.65;5.32;;;;;;;-142.57;71.09;57315.75;4878037;29;20043;-86
2023/12/24 15:26:22;;;;;;;21.98;5.00;;;;;;;-142.57;72.31;57273.31;4878861;29;20039;-83
2023/12/24 15:28:51;;;;;;;25.67;5.80;;;;;;;-142.57;74.60;57216.72;4894974;29;20573;-85
2023/12/24 15:31:20;;;;;;;23.27;6.18;;;;;;;-142.57;73.14;57273.31;4899262;29;20789;-85
2023/12/24 15:33:46;;;;;;;26.10;5.50;;;;;;;-142.57;71.65;57293.53;4868575;29;20059;-84
2023/12/24 15:36:12;;;;;;;20.10;5.95;;;;;;;-142.57;72.09;57255.13;4933040;28;20500;-87
2023/12/24 15:38:40;;;;;;;17.83;5.32;;;;;;;-142.57;72.08;57228.84;4935609;29;20031;-85
2023/12/24 15:41:06;;;;;;;18.30;5.32;;;;;;;-142.57;72.08;57289.47;4950521;29;20035;-87
2023/12/24 15:43:35;;;;;;;20.65;6.18;;;;;;;-142.57;71.09;57299.59;4932230;29;20393;-83
2023/12/24 15:46:03;;;;;;;22.23;5.25;;;;;;;-142.57;72.42;57204.59;4930024;29;20031;-87
2023/12/24 15:48:29;;;;;;;21.10;5.28;;;;;;;-142.57;73.34;57135.88;4929774;29;20034;-85
2023/12/24 15:50:54;;;;;;;18.17;4.32;;;;;;;-142.57;73.17;57150.00;4931445;29;20024;-87
2023/12/24 15:53:20;;;;;;;26.23;5.85;;;;;;;-142.57;73.51;57172.25;4935955;29;20079;-83
2023/12/24 15:55:46;;;;;;;17.95;5.57;;;;;;;-142.57;73.28;57127.78;4960555;29;20478;-87
2023/12/24 15:58:12;;;;;;;23.35;6.35;;;;;;;-142.57;75.16;57087.34;4960942;29;20046;-85
2023/12/24 16:00:43;;;;;;;30.35;5.90;;;;;;;-142.57;78.33;57000.44;4929343;29;20039;-86
2023/12/24 16:03:09;;;;;;;23.10;6.10;;;;;;;-142.57;80.44;56970.13;4898133;28;20043;-86
2023/12/24 16:05:34;;;;;;;25.48;6.32;;;;;;;-142.57;79.76;57006.50;4870114;29;20484;-83
2023/12/24 16:08:00;;;;;;;23.58;6.43;;;;;;;-142.57;80.06;57020.66;4888403;29;20050;-86
2023/12/24 16:10:25;;;;;;;29.45;6.63;;;;;;;-142.57;79.48;57040.88;4940644;28;20027;-86
2023/12/24 16:12:53;;;;;;;22.45;6.22;;;;;;;-142.57;79.43;57050.97;4931436;29;20110;-85
2023/12/24 16:15:23;;;;;;;27.83;6.13;;;;;;;-142.57;79.44;57087.34;4938231;29;20040;-85
2023/12/24 16:17:48;;;;;;;23.63;5.85;;;;;;;-142.57;79.25;57055.00;4944316;29;20036;-85
2023/12/24 16:20:20;;;;;;;25.98;6.82;;;;;;;-142.57;79.68;57048.94;4890965;29;20031;-86
2023/12/24 16:22:49;;;;;;;25.52;7.38;;;;;;;-142.57;80.29;57022.69;4889762;29;20398;-86
2023/12/24 16:25:18;;;;;;;27.02;7.60;;;;;;;-142.57;80.91;57002.47;4926584;29;20028;-86
2023/12/24 16:27:43;;;;;;;22.13;6.72;;;;;;;-142.57;82.35;56962.03;4944199;29;20071;-85
2023/12/24 16:30:09;;;;;;;31.08;7.07;;;;;;;-142.57;82.78;56970.13;4934032;29;20127;-87
2023/12/24 16:32:36;;;;;;;26.30;8.00;;;;;;;-142.57;82.47;56923.63;4913155;29;20040;-86
2023/12/24 16:35:04;;;;;;;29.85;9.48;;;;;;;-142.57;84.72;56875.13;4916859;29;20063;-88
2023/12/24 16:37:30;;;;;;;31.30;9.60;;;;;;;-142.57;86.75;56850.88;4917135;28;20038;-88
2023/12/24 16:39:56;;;;;;;29.42;10.82;;;;;;;-142.57;91.98;56735.69;4871602;29;20684;-85
2023/12/24 16:42:21;;;;;;;44.80;12.68;;;;;;;-142.57;100.00;56624.53;4898664;29;20031;-86
2023/12/24 16:44:47;;;;;;;31.33;12.00;;;;;;;-142.57;100.00;56650.78;4933470;29;20031;-85
2023/12/24 16:47:13;;;;;;;32.63;10.82;;;;;;;-142.57;100.00;56582.06;4922114;28;21325;-86
2023/12/24 16:49:39;;;;;;;35.97;10.93;;;;;;;-142.57;100.00;56574.00;4906805;29;20048;-86
2023/12/24 16:52:05;;;;;;;35.55;10.25;;;;;;;-142.57;100.00;56569.94;4893562;28;20035;-84
2023/12/24 16:54:32;;;;;;;28.17;10.43;;;;;;;-142.57;100.00;56561.88;4880915;29;20498;-84
2023/12/24 16:56:57;;;;;;;27.63;11.35;;;;;;;-142.57;100.00;56561.88;4897063;29;20509;-87
2023/12/24 16:59:23;;;;;;;34.60;10.95;;;;;;;-142.57;100.00;56489.13;4921165;29;20028;-86
2023/12/24 17:01:48;;;;;;;29.25;9.55;;;;;;;-142.57;100.00;56537.63;4917013;29;21557;-83
2023/12/24 17:04:15;;;;;;;47.03;12.45;;;;;;;-142.57;100.00;56468.91;4929971;29;20491;-83
2023/12/24 17:06:41;;;;;;;37.22;13.02;;;;;;;-142.57;100.00;56436.56;4924595;28;20111;-84
2023/12/24 17:09:09;;;;;;;42.30;13.00;;;;;;;-142.57;100.00;56450.72;4945979;29;20060;-85
2023/12/24 17:11:35;;;;;;;31.65;13.68;;;;;;;-142.57;100.00;56470.94;4934514;29;20031;-80
2023/12/24 17:14:01;;;;;;;31.65;11.85;;;;;;;-142.57;100.00;56515.38;4930307;28;20548;-85
2023/12/24 17:16:27;;;;;;;35.88;11.38;;;;;;;-142.57;100.00;56515.38;4929393;29;20039;-85
2023/12/24 17:18:55;;;;;;;32.03;10.77;;;;;;;-142.57;100.00;56557.81;4895095;29;20034;-84
2023/12/24 17:21:21;;;;;;;29.02;11.23;;;;;;;-142.57;100.00;56557.81;4961035;29;20043;-86
2023/12/24 17:23:47;;;;;;;31.88;11.15;;;;;;;-142.57;100.00;56602.28;4947983;29;20026;-84
2023/12/24 17:26:12;;;;;;;30.08;9.95;;;;;;;-142.57;100.00;56614.41;4941205;28;20030;-85
2023/12/24 17:28:38;;;;;;;36.67;9.95;;;;;;;-142.57;100.00;56612.38;4932649;29;20371;-80
2023/12/24 17:31:07;;;;;;;25.20;9.10;;;;;;;-142.57;100.00;56604.31;4941168;29;20048;-84
2023/12/24 17:33:34;;;;;;;37.47;10.88;;;;;;;-142.57;100.00;56578.03;4923109;29;20057;-80
2023/12/24 17:36:00;;;;;;;30.48;10.45;;;;;;;-142.57;100.00;56569.94;4921908;29;20035;-79
2023/12/24 17:38:26;;;;;;;26.15;9.98;;;;;;;-142.57;100.00;56614.41;4958651;28;20047;-80
2023/12/24 17:40:51;;;;;;;29.17;11.35;;;;;;;-142.57;100.00;56586.13;4952439;29;20100;-79
2023/12/24 17:43:17;;;;;;;35.95;12.98;;;;;;;-142.57;100.00;56626.53;4957863;28;20103;-79
2023/12/24 17:45:43;;;;;;;34.38;13.35;;;;;;;-142.57;100.00;56582.06;4955943;29;20119;-81
2023/12/24 17:48:08;;;;;;;42.05;13.82;;;;;;;-142.57;100.00;56620.47;4918042;28;20030;-81
2023/12/24 17:50:36;;;;;;;30.50;13.15;;;;;;;-142.57;100.00;56626.53;4944893;28;20504;-79
2023/12/24 17:53:02;;;;;;;38.45;14.38;;;;;;;-142.57;100.00;56606.31;4942185;28;20055;-79
2023/12/24 17:55:28;;;;;;;36.53;15.10;;;;;;;-142.57;100.00;56596.22;4933492;29;20071;-80
2023/12/24 17:57:53;;;;;;;33.13;12.88;;;;;;;-142.57;100.00;56578.03;4936985;28;20074;-81
2023/12/24 18:00:19;;;;;;;42.75;12.70;;;;;;;-142.57;100.00;56654.84;4935108;29;20114;-80
2023/12/24 18:02:45;;;;;;;31.60;13.38;;;;;;;-142.57;100.00;56638.66;4935198;29;20043;-82
2023/12/24 18:05:10;;;;;;;32.55;14.82;;;;;;;-142.57;100.00;56590.16;4935304;28;20031;-83
2023/12/24 18:07:37;;;;;;;40.03;16.20;;;;;;;-142.57;100.00;56594.19;4915031;29;20070;-81
2023/12/24 18:10:05;;;;;;;46.42;16.50;;;;;;;-142.57;100.00;56618.44;4942328;28;20074;-82
2023/12/24 18:12:31;;;;;;;37.72;16.58;;;;;;;-142.57;100.00;56598.25;4936214;28;20121;-81
2023/12/24 18:14:57;;;;;;;38.75;16.65;;;;;;;-142.57;100.00;56578.03;4952142;29;20459;-83
2023/12/24 18:17:22;;;;;;;36.78;15.57;;;;;;;-142.57;100.00;56588.13;4951845;28;20490;-81
2023/12/24 18:19:48;;;;;;;45.35;15.38;;;;;;;-142.57;100.00;56533.56;4935833;28;20034;-81
2023/12/24 18:22:13;;;;;;;38.00;15.00;;;;;;;-142.57;100.00;56468.91;4929709;28;20469;-83
2023/12/24 18:24:40;;;;;;;43.00;15.85;;;;;;;-142.57;100.00;56489.13;4935323;29;20038;-80
2023/12/24 18:27:05;;;;;;;46.60;16.15;;;;;;;-142.57;100.00;56521.44;4934736;29;20072;-81
2023/12/24 18:29:31;;;;;;;42.17;14.35;;;;;;;-142.57;100.00;56515.38;4933927;29;20052;-80
2023/12/24 18:31:56;;;;;;;37.03;14.55;;;;;;;-142.57;100.00;56519.44;4941068;29;20375;-80
2023/12/24 18:34:22;;;;;;;36.20;14.13;;;;;;;-142.57;100.00;56521.44;4936235;29;20023;-80
2023/12/24 18:36:48;;;;;;;39.55;14.65;;;;;;;-142.57;100.00;56549.75;4938604;28;20194;-80
2023/12/24 18:39:14;;;;;;;40.22;13.48;;;;;;;-142.57;100.00;56569.94;4935494;28;20477;-80
2023/12/24 18:41:40;;;;;;;35.05;12.27;;;;;;;-142.57;100.00;56594.19;4950204;28;20394;-81
2023/12/24 18:44:05;;;;;;;39.53;13.98;;;;;;;-142.57;100.00;56515.38;4945746;28;20043;-81
2023/12/24 18:46:31;;;;;;;32.53;13.45;;;;;;;-142.57;100.00;56517.41;4904607;29;20074;-79
2023/12/24 18:48:56;;;;;;;41.47;14.10;;;;;;;-142.57;100.00;56529.53;4948412;29;20070;-82
2023/12/24 18:51:22;;;;;;;33.00;13.48;;;;;;;-142.57;100.00;56604.31;4932069;29;20088;-87
2023/12/24 18:53:48;;;;;;;32.35;14.02;;;;;;;-142.57;100.00;56588.13;4935237;29;20032;-81
2023/12/24 18:56:25;;;;;;;36.08;14.60;;;;;;;-142.57;100.00;56547.72;4935810;28;20077;-82
2023/12/24 18:58:51;;;;;;;31.55;13.73;;;;;;;-142.57;100.00;56578.03;4937459;29;20043;-81
2023/12/24 19:01:17;;;;;;;31.27;13.32;;;;;;;-142.57;100.00;56462.84;4909648;28;20062;-84
2023/12/24 19:03:43;;;;;;;40.08;13.93;;;;;;;-142.57;100.00;56509.31;4943759;29;20039;-83
2023/12/24 19:06:29;;;;;;;32.38;12.73;;;;;;;-142.57;100.00;56442.63;4954491;29;20043;-80
2023/12/24 19:08:56;;;;;;;35.80;14.10;;;;;;;-142.57;100.00;56487.09;4960672;28;20036;-80
2023/12/24 19:11:23;;;;;;;41.15;14.73;;;;;;;-142.57;100.00;56448.69;4951290;29;20031;-82
2023/12/24 19:13:49;;;;;;;38.95;13.18;;;;;;;-142.57;100.00;56428.47;4906493;29;20054;-81
2023/12/24 19:16:15;;;;;;;37.90;12.07;;;;;;;-142.57;100.00;56477.00;4945214;29;20098;-81
2023/12/24 19:18:42;;;;;;;33.05;11.38;;;;;;;-142.57;100.00;56468.91;4927553;28;20039;-84
2023/12/24 19:21:11;;;;;;;24.73;10.23;;;;;;;-142.57;100.00;56517.41;4949117;29;20082;-84
2023/12/24 19:23:38;;;;;;;31.30;11.57;;;;;;;-142.57;100.00;56523.47;4933706;29;20090;-86
2023/12/24 19:26:03;;;;;;;26.02;10.98;;;;;;;-142.57;100.00;56505.28;4950110;29;20039;-83
2023/12/24 19:28:30;;;;;;;25.40;10.52;;;;;;;-142.57;100.00;56481.03;4944850;28;20035;-83
2023/12/24 19:30:55;;;;;;;36.42;11.40;;;;;;;-142.57;100.00;56404.22;4940179;29;20043;-83
2023/12/24 19:33:21;;;;;;;28.05;11.45;;;;;;;-142.57;100.00;56361.78;4926830;29;20122;-86
2023/12/24 19:35:46;;;;;;;34.83;11.88;;;;;;;-142.57;100.00;56412.31;4965007;29;20086;-82
2023/12/24 19:38:12;;;;;;;31.35;11.75;;;;;;;-142.57;100.00;56315.31;4952488;29;20051;-82
2023/12/24 19:40:38;;;;;;;28.08;10.70;;;;;;;-142.57;100.00;56339.56;4972689;28;20086;-83
2023/12/24 19:43:04;;;;;;;31.90;10.43;;;;;;;-142.57;100.00;56359.78;4942793;29;20134;-88
2023/12/24 19:45:32;;;;;;;30.08;9.88;;;;;;;-142.57;100.00;56307.22;4946223;29;20414;-89
2023/12/24 19:47:58;;;;;;;32.85;9.55;;;;;;;-142.57;100.00;56276.91;4947176;29;20047;-89
2023/12/24 19:50:24;;;;;;;27.20;9.77;;;;;;;-142.57;100.00;56291.06;4945436;29;20079;-90
2023/12/24 19:52:54;;;;;;;20.75;8.48;;;;;;;-142.57;100.00;56325.41;4955753;29;20055;-88
2023/12/24 19:55:20;;;;;;;29.75;8.68;;;;;;;-142.57;100.00;56258.72;4946608;28;20031;-89
2023/12/24 19:57:45;;;;;;;24.38;7.78;;;;;;;-142.57;100.00;56293.09;4938960;29;20038;-89
2023/12/24 20:00:11;;;;;;;21.27;6.57;;;;;;;-142.57;100.00;56295.09;4941855;29;20039;-87
2023/12/24 20:02:44;;;;;;;21.10;6.53;;;;;;;-142.57;100.00;56307.22;4920086;29;20486;-90
2023/12/24 20:05:11;;;;;;;23.30;6.63;;;;;;;-142.57;100.00;56341.59;4918531;29;20291;-91
2023/12/24 20:07:36;;;;;;;24.67;7.07;;;;;;;-142.57;100.00;56335.53;4910707;29;20115;-89
2023/12/24 20:10:04;;;;;;;19.35;5.40;;;;;;;-142.57;100.00;56319.34;4911568;29;20087;-90
2023/12/24 20:12:30;;;;;;;19.70;5.15;;;;;;;-142.57;100.00;56297.13;4907515;29;20039;-90
2023/12/24 20:14:55;;;;;;;19.35;5.97;;;;;;;-142.57;100.00;56256.72;4935789;23;20086;-91
2023/12/24 20:17:21;;;;;;;12.52;4.90;;;;;;;-142.57;100.00;56353.72;4943252;29;20034;-89
2023/12/24 20:19:49;;;;;;;16.83;5.13;;;;;;;-142.57;100.00;56311.28;4937087;28;20083;-89
2023/12/24 20:22:14;;;;;;;20.35;5.25;;;;;;;-142.57;100.00;56347.66;4949284;28;20035;-90
2023/12/24 20:24:40;;;;;;;20.85;5.68;;;;;;;-142.57;100.00;56341.59;4941697;29;20046;-91
2023/12/24 20:27:19;;;;;;;20.48;5.75;;;;;;;-142.57;100.00;56351.69;4933122;29;20046;-91
2023/12/24 20:29:55;;;;;;;18.83;5.93;;;;;;;-142.57;100.00;56388.06;4941159;29;20036;-90
2023/12/24 20:32:21;;;;;;;22.55;6.28;;;;;;;-142.57;100.00;56343.59;4917306;28;20043;-88
2023/12/24 20:34:47;;;;;;;13.60;6.10;;;;;;;-142.57;100.00;56357.75;4903741;29;20034;-86
2023/12/24 20:37:15;;;;;;;27.27;9.50;;;;;;;-142.57;100.00;56345.63;4915388;28;20483;-88
2023/12/24 20:39:40;;;;;;;25.73;10.55;;;;;;;-142.57;100.00;56299.16;4930434;29;20039;-82
2023/12/24 20:42:06;;;;;;;33.28;10.68;;;;;;;-142.57;100.00;56319.34;4930303;28;20059;-88
2023/12/24 20:44:37;;;;;;;21.02;8.25;;;;;;;-142.57;100.00;56278.94;4942108;29;20054;-86
2023/12/24 20:47:03;;;;;;;19.90;7.85;;;;;;;-142.57;100.00;56323.41;4943501;28;20035;-89
2023/12/24 20:49:29;;;;;;;27.02;8.75;;;;;;;-142.57;100.00;56242.56;4915544;29;20034;-90
2023/12/24 20:51:54;;;;;;;32.17;9.70;;;;;;;-142.57;100.00;56291.06;4930708;29;20031;-89
2023/12/24 20:54:20;;;;;;;20.35;6.75;;;;;;;-142.57;100.00;56252.66;4938473;29;20431;-86
2023/12/24 20:56:45;;;;;;;23.77;6.00;;;;;;;-142.57;100.00;56274.91;4939574;28;20094;-84
2023/12/24 20:59:12;;;;;;;15.45;4.72;;;;;;;-142.57;100.00;56192.03;4905138;28;20083;-88
2023/12/24 21:01:37;;;;;;;22.85;6.10;;;;;;;-142.57;100.00;56272.88;4891369;28;20046;-87
2023/12/24 21:04:03;;;;;;;20.73;5.40;;;;;;;-142.57;100.00;56303.19;4914683;28;20043;-86